Time;durP1;ratioP1;P1;durP2;ratioP2;P2;SDS_P1;SDS_P2;PMS_P1;PMS_P2;Temp;Humidity;BMP_temperature;BMP_pressure;BME280_temperature;BME280_humidity;BME280_pressure;Samples;Min_cycle;Max_cycle;Signal;HPM_P1;HPM_P2
2023/08/24 00:01:28;;;;;;;;;8.50;8.50;;;;;27.39;49.16;100733.88;6213776;22;54944;-84
2023/08/24 00:03:53;;;;;;;;;9.75;8.25;;;;;27.40;49.28;100731.97;6213248;22;53465;-80
2023/08/24 00:06:18;;;;;;;;;9.25;9.25;;;;;27.35;50.09;100723.53;6213885;22;45447;-81
2023/08/24 00:08:44;;;;;;;;;10.25;10.25;;;;;27.32;49.80;100736.50;6214061;22;45708;-80
2023/08/24 00:11:14;;;;;;;;;8.50;8.50;;;;;27.25;49.95;100723.84;6213993;22;45268;-80
2023/08/24 00:13:48;;;;;;;;;15.40;15.00;;;;;27.24;49.66;100719.41;6214708;22;45378;-82
2023/08/24 00:16:13;;;;;;;;;10.50;8.75;;;;;27.13;50.01;100708.97;6188262;22;45428;-80
2023/08/24 00:18:39;;;;;;;;;10.75;10.75;;;;;27.14;50.45;100710.66;6215562;22;45473;-80
2023/08/24 00:21:04;;;;;;;;;6.50;5.00;;;;;27.12;50.35;100710.00;6217545;22;57304;-80
2023/08/24 00:23:29;;;;;;;;;8.00;8.00;;;;;27.06;50.96;100710.75;6218329;22;45390;-80
2023/08/24 00:25:54;;;;;;;;;10.75;8.00;;;;;27.00;50.82;100715.91;6215265;22;45503;-80
2023/08/24 00:28:20;;;;;;;;;7.25;7.25;;;;;27.01;51.48;100719.53;6216089;22;46012;-82
2023/08/24 00:30:45;;;;;;;;;7.50;6.50;;;;;26.95;51.22;100726.53;6215756;22;45335;-82
2023/08/24 00:33:10;;;;;;;;;7.75;6.75;;;;;26.94;51.41;100722.13;6188649;22;45269;-82
2023/08/24 00:35:36;;;;;;;;;7.00;7.00;;;;;26.90;51.89;100720.81;6187925;22;45178;-82
2023/08/24 00:38:01;;;;;;;;;9.25;9.00;;;;;26.86;51.74;100718.66;6215990;22;46522;-79
2023/08/24 00:40:26;;;;;;;;;7.00;6.00;;;;;26.85;52.20;100726.00;6217184;22;45245;-79
2023/08/24 00:42:52;;;;;;;;;6.75;6.75;;;;;26.82;51.80;100722.78;6217846;22;45322;-83
2023/08/24 00:45:18;;;;;;;;;11.50;9.25;;;;;26.75;51.93;100719.97;6217127;22;45607;-84
2023/08/24 00:47:46;;;;;;;;;6.50;6.50;;;;;26.75;51.81;100723.56;6217027;22;45521;-85
2023/08/24 00:50:12;;;;;;;;;8.00;6.60;;;;;26.74;51.64;100715.56;6216373;22;45342;-82
2023/08/24 00:52:39;;;;;;;;;9.25;8.00;;;;;26.74;52.13;100723.75;6218188;22;45221;-81
2023/08/24 00:55:06;;;;;;;;;7.50;7.50;;;;;26.69;52.26;100724.31;6217622;22;45270;-84
2023/08/24 00:57:32;;;;;;;;;10.00;8.50;;;;;26.65;53.19;100719.41;6216964;22;45196;-81
2023/08/24 00:59:59;;;;;;;;;6.50;6.25;;;;;26.55;53.77;100716.09;6216567;22;45245;-80
2023/08/24 01:02:24;;;;;;;;;9.00;9.00;;;;;26.52;54.52;100735.56;6215859;22;45342;-80
2023/08/24 01:04:50;;;;;;;;;9.50;8.25;;;;;26.36;54.79;100712.91;6216150;22;45420;-80
2023/08/24 01:07:17;;;;;;;;;12.25;10.00;;;;;25.97;55.26;100650.38;6215997;22;45159;-80
2023/08/24 01:09:43;;;;;;;;;10.80;9.00;;;;;26.34;55.85;100717.66;6217469;22;45191;-80
2023/08/24 01:12:25;;;;;;;;;11.00;10.25;;;;;26.30;55.45;100724.50;6217944;22;45224;-78
2023/08/24 01:15:07;;;;;;;;;8.25;8.25;;;;;26.23;56.23;100709.06;6217793;22;45280;-80
2023/08/24 01:17:35;;;;;;;;;13.25;12.00;;;;;26.26;56.27;100723.16;6217640;22;45892;-80
2023/08/24 01:20:05;;;;;;;;;10.75;10.75;;;;;26.21;56.70;100720.16;6216628;22;45374;-80
2023/08/24 01:22:43;;;;;;;;;9.75;7.50;;;;;26.15;57.27;100720.88;6217066;22;45216;-82
2023/08/24 01:25:37;;;;;;;;;9.00;9.00;;;;;26.07;57.35;100710.91;6217439;22;45094;-80
2023/08/24 01:28:04;;;;;;;;;11.50;11.50;;;;;26.08;57.56;100719.94;6216931;22;45328;-82
2023/08/24 01:30:30;;;;;;;;;8.25;8.25;;;;;26.01;57.91;100721.69;6216527;22;45316;-80
2023/08/24 01:32:56;;;;;;;;;12.50;11.00;;;;;25.97;57.87;100714.94;6216602;22;45356;-82
2023/08/24 01:35:22;;;;;;;;;7.75;7.75;;;;;25.90;57.83;100706.63;6218438;22;45332;-81
2023/08/24 01:37:53;;;;;;;;;9.00;9.00;;;;;25.85;57.76;100693.56;6217514;22;45355;-81
2023/08/24 01:40:47;;;;;;;;;6.00;4.67;;;;;25.77;58.25;100696.34;6216154;22;45213;-81
2023/08/24 01:43:13;;;;;;;;;10.75;10.00;;;;;25.67;58.57;100676.66;6192329;22;45186;-82
2023/08/24 01:45:41;;;;;;;;;8.75;8.75;;;;;25.72;58.41;100693.31;6219768;22;45081;-80
2023/08/24 01:48:10;;;;;;;;;8.75;7.50;;;;;25.68;58.80;100688.41;6218730;22;44994;-80
2023/08/24 01:50:36;;;;;;;;;7.00;6.00;;;;;25.62;58.58;100681.78;6219255;22;45363;-81
2023/08/24 01:53:02;;;;;;;;;13.25;10.00;;;;;25.65;58.83;100688.72;6222502;22;45195;-84
2023/08/24 01:55:27;;;;;;;;;9.75;8.75;;;;;25.59;58.94;100693.03;6231854;22;45190;-82
2023/08/24 01:57:56;;;;;;;;;10.25;9.00;;;;;25.56;59.09;100682.53;6226445;22;45284;-83
2023/08/24 02:00:21;;;;;;;;;8.60;8.20;;;;;25.41;59.10;100651.66;6191869;22;45394;-85
2023/08/24 02:02:47;;;;;;;;;12.00;9.00;;;;;25.41;59.23;100663.41;6220664;22;45264;-83
2023/08/24 02:05:12;;;;;;;;;8.25;7.00;;;;;25.44;59.57;100682.09;6193451;22;45473;-85
2023/08/24 02:07:39;;;;;;;;;8.00;8.00;;;;;25.37;59.19;100667.47;6219346;22;46339;-85
2023/08/24 02:10:04;;;;;;;;;7.75;7.75;;;;;25.39;59.63;100670.03;6217633;22;45308;-82
2023/08/24 02:12:29;;;;;;;;;8.75;7.75;;;;;25.25;59.19;100650.72;6216241;22;45356;-82
2023/08/24 02:14:55;;;;;;;;;7.50;7.50;;;;;25.09;59.44;100620.03;6216807;22;50417;-81
2023/08/24 02:17:20;;;;;;;;;12.75;12.75;;;;;25.23;59.55;100651.94;6223021;22;45572;-83
2023/08/24 02:19:45;;;;;;;;;11.25;9.00;;;;;25.34;59.45;100667.00;6222942;22;45106;-86
2023/08/24 02:22:11;;;;;;;;;9.75;9.75;;;;;25.30;60.49;100661.09;6218107;22;54569;-81
2023/08/24 02:24:36;;;;;;;;;8.75;8.75;;;;;25.29;59.69;100660.25;6218779;22;45213;-85
2023/08/24 02:27:01;;;;;;;;;11.00;9.25;;;;;25.23;60.12;100649.19;6215164;22;63188;-85
2023/08/24 02:29:27;;;;;;;;;9.00;9.00;;;;;25.15;60.24;100628.34;6215434;22;51802;-87
2023/08/24 02:31:53;;;;;;;;;8.75;7.00;;;;;25.24;60.19;100646.28;6218869;22;45170;-87
2023/08/24 02:34:18;;;;;;;;;12.50;12.50;;;;;25.21;61.01;100645.81;6219026;22;45535;-86
2023/08/24 02:36:43;;;;;;;;;15.50;13.50;;;;;25.16;60.85;100653.69;6217979;22;51150;-87
2023/08/24 02:39:09;;;;;;;;;10.50;10.50;;;;;25.14;60.58;100651.16;6217451;22;45176;-83
2023/08/24 02:41:35;;;;;;;;;9.50;9.50;;;;;24.98;60.69;100624.81;6216583;22;47008;-88
2023/08/24 02:44:01;;;;;;;;;10.25;8.50;;;;;25.09;60.32;100634.50;6219666;22;45544;-83
2023/08/24 02:46:26;;;;;;;;;10.50;10.50;;;;;25.06;60.84;100634.00;6217840;22;46198;-85
2023/08/24 02:48:51;;;;;;;;;13.00;11.00;;;;;25.04;60.78;100638.78;6220655;22;45295;-82
2023/08/24 02:51:17;;;;;;;;;9.00;9.00;;;;;25.04;60.52;100628.75;6223275;22;49843;-85
2023/08/24 02:53:42;;;;;;;;;8.50;8.50;;;;;25.01;60.39;100612.78;6224235;22;45505;-78
2023/08/24 02:56:07;;;;;;;;;10.75;10.00;;;;;24.93;60.83;100601.91;6218980;22;46030;-82
2023/08/24 02:58:32;;;;;;;;;10.50;10.50;;;;;24.96;60.46;100605.09;6222508;22;45244;-80
2023/08/24 03:00:58;;;;;;;;;9.75;9.50;;;;;24.95;60.75;100602.56;6220263;22;45446;-78
2023/08/24 03:03:24;;;;;;;;;9.00;9.00;;;;;24.97;60.11;100605.97;6222201;22;45296;-83
2023/08/24 03:05:58;;;;;;;;;8.00;8.00;;;;;24.94;60.54;100611.75;6223617;22;45196;-88
2023/08/24 03:08:24;;;;;;;;;9.50;9.50;;;;;24.85;60.98;100602.78;6217115;22;45221;-86
2023/08/24 03:10:49;;;;;;;;;9.00;9.00;;;;;24.81;60.55;100597.91;6217200;22;45347;-87
2023/08/24 03:13:15;;;;;;;;;7.25;7.25;;;;;24.88;60.84;100607.91;6215829;22;45297;-80
2023/08/24 03:15:40;;;;;;;;;9.75;9.75;;;;;24.84;61.04;100597.53;6214896;22;45321;-84
2023/08/24 03:18:05;;;;;;;;;8.00;8.00;;;;;24.70;60.43;100580.94;6212531;22;54573;-83
2023/08/24 03:20:31;;;;;;;;;9.50;8.00;;;;;24.81;61.11;100600.63;6214312;22;45402;-84
2023/08/24 03:22:57;;;;;;;;;10.25;10.25;;;;;24.82;61.44;100594.16;6216110;22;45241;-81
2023/08/24 03:25:22;;;;;;;;;9.00;9.00;;;;;24.77;61.11;100593.84;6212905;22;45292;-82
2023/08/24 03:27:48;;;;;;;;;10.00;8.25;;;;;24.77;60.93;100593.84;6186722;22;45238;-86
2023/08/24 03:30:13;;;;;;;;;10.75;9.00;;;;;24.65;61.12;100569.75;6214054;22;45242;-82
2023/08/24 03:32:42;;;;;;;;;11.75;9.00;;;;;24.75;61.32;100590.47;6213528;22;45565;-83
2023/08/24 03:35:08;;;;;;;;;11.00;11.00;;;;;24.62;61.41;100563.84;6213464;22;46100;-82
2023/08/24 03:37:33;;;;;;;;;9.50;9.50;;;;;24.74;61.34;100583.28;6213294;22;46114;-82
2023/08/24 03:39:59;;;;;;;;;16.00;12.00;;;;;24.71;61.11;100574.47;6186367;22;45339;-80
2023/08/24 03:42:24;;;;;;;;;10.25;10.25;;;;;24.77;60.98;100577.53;6214480;22;45558;-81
2023/08/24 03:44:50;;;;;;;;;12.25;12.25;;;;;24.76;60.23;100576.69;6212783;22;49779;-79
2023/08/24 03:47:15;;;;;;;;;9.00;9.00;;;;;24.78;60.47;100573.78;6185808;22;45376;-82
2023/08/24 03:49:44;;;;;;;;;8.50;8.50;;;;;24.77;60.69;100577.53;6212564;22;45371;-79
2023/08/24 03:52:09;;;;;;;;;8.25;8.25;;;;;24.73;60.58;100576.16;6214721;22;45560;-81
2023/08/24 03:54:35;;;;;;;;;9.00;8.25;;;;;24.69;60.24;100576.53;6213019;22;61401;-80
2023/08/24 03:57:02;;;;;;;;;8.25;8.25;;;;;24.72;60.32;100569.88;6213304;22;45197;-83
2023/08/24 03:59:28;;;;;;;;;9.50;9.00;;;;;24.62;60.64;100558.41;6214248;22;45320;-80
2023/08/24 04:01:53;;;;;;;;;8.00;8.00;;;;;24.69;60.24;100567.53;6213645;22;45240;-83
2023/08/24 04:04:18;;;;;;;;;10.75;10.75;;;;;24.73;60.15;100568.00;6213430;22;45978;-81
2023/08/24 04:06:44;;;;;;;;;9.00;9.00;;;;;24.65;59.90;100558.88;6213837;22;60871;-85
2023/08/24 04:09:09;;;;;;;;;9.00;9.00;;;;;24.75;59.24;100568.69;6207821;22;45308;-84
2023/08/24 04:11:35;;;;;;;;;10.75;10.75;;;;;24.75;59.30;100571.41;6214117;22;45357;-82
2023/08/24 04:14:00;;;;;;;;;10.75;10.25;;;;;24.73;58.88;100562.56;6213433;22;69941;-81
2023/08/24 04:16:25;;;;;;;;;12.00;10.75;;;;;24.74;58.84;100569.69;6214100;22;45494;-85
2023/08/24 04:18:51;;;;;;;;;7.75;7.75;;;;;24.69;58.57;100562.94;6215275;22;45381;-89
2023/08/24 04:21:16;;;;;;;;;9.75;9.00;;;;;24.74;58.46;100567.84;6217243;22;45176;-86
2023/08/24 04:23:44;;;;;;;;;9.25;9.25;;;;;24.71;58.34;100563.59;6216269;22;58336;-85
2023/08/24 04:26:11;;;;;;;;;8.75;8.75;;;;;24.65;58.33;100548.00;6214598;22;45263;-84
2023/08/24 04:28:36;;;;;;;;;11.00;9.50;;;;;24.73;57.88;100554.41;6216069;22;45407;-86
2023/08/24 04:31:02;;;;;;;;;8.75;8.25;;;;;24.69;58.15;100557.50;6215176;22;45365;-87
2023/08/24 04:33:27;;;;;;;;;11.00;10.00;;;;;24.73;57.88;100554.41;6215168;22;45385;-88
2023/08/24 04:35:52;;;;;;;;;8.75;8.75;;;;;24.73;57.71;100548.97;6214196;22;45416;-86
2023/08/24 04:38:18;;;;;;;;;13.00;10.25;;;;;24.75;57.87;100552.38;6214248;22;60603;-87
2023/08/24 04:40:56;;;;;;;;;11.00;10.25;;;;;24.67;57.79;100534.22;6214094;22;45345;-82
2023/08/24 04:43:23;;;;;;;;;9.50;9.50;;;;;24.71;57.68;100539.13;6217435;22;45419;-78
2023/08/24 04:45:52;;;;;;;;;10.50;10.50;;;;;24.66;57.78;100527.94;6214520;22;45236;-80
2023/08/24 04:48:18;;;;;;;;;9.50;8.25;;;;;24.65;57.62;100531.69;6215218;22;45259;-80
2023/08/24 04:50:45;;;;;;;;;8.50;7.50;;;;;24.47;57.42;100498.47;6218357;22;45574;-83
2023/08/24 04:53:13;;;;;;;;;10.00;9.00;;;;;24.50;57.34;100506.28;6220553;22;45294;-83
2023/08/24 04:55:38;;;;;;;;;9.50;9.50;;;;;24.53;58.00;100515.94;6221149;22;45184;-84
2023/08/24 04:58:03;;;;;;;;;7.50;7.50;;;;;24.55;57.63;100514.75;6222638;22;45129;-83
2023/08/24 05:00:29;;;;;;;;;9.00;9.00;;;;;24.57;58.07;100518.13;6219275;22;45121;-83
2023/08/24 05:02:54;;;;;;;;;10.25;10.00;;;;;24.52;57.82;100517.81;6221030;22;45988;-83
2023/08/24 05:05:20;;;;;;;;;8.50;7.50;;;;;24.50;57.66;100511.72;6218149;22;45205;-83
2023/08/24 05:07:45;;;;;;;;;9.75;9.75;;;;;24.48;57.98;100521.94;6215406;22;45404;-84
2023/08/24 05:10:11;;;;;;;;;11.75;9.25;;;;;24.55;58.29;100533.78;6214014;22;45166;-80
2023/08/24 05:12:36;;;;;;;;;10.50;10.25;;;;;24.57;57.92;100534.44;6213961;22;46007;-82
2023/08/24 05:15:02;;;;;;;;;10.00;8.75;;;;;24.59;57.89;100526.94;6185990;22;45692;-84
2023/08/24 05:17:28;;;;;;;;;12.75;9.75;;;;;24.57;57.89;100545.31;6215210;22;45394;-85
2023/08/24 05:19:54;;;;;;;;;14.00;12.75;;;;;24.57;58.03;100534.44;6215417;22;45232;-82
2023/08/24 05:22:20;;;;;;;;;9.25;9.00;;;;;24.57;57.81;100539.88;6214650;22;45340;-83
2023/08/24 05:24:46;;;;;;;;;8.50;8.50;;;;;24.59;57.46;100537.81;6215745;22;45291;-83
2023/08/24 05:27:11;;;;;;;;;10.00;10.00;;;;;24.57;57.50;100545.31;6215484;22;45252;-83
2023/08/24 05:29:36;;;;;;;;;12.75;12.75;;;;;24.64;57.69;100545.47;6214141;22;51020;-85
2023/08/24 05:32:02;;;;;;;;;14.25;13.25;;;;;24.68;57.50;100542.19;6214084;22;45347;-86
2023/08/24 05:34:28;;;;;;;;;14.00;10.00;;;;;24.74;57.14;100539.78;6214674;22;45232;-84
2023/08/24 05:36:53;;;;;;;;;12.25;11.25;;;;;24.72;56.68;100520.94;6214001;22;45209;-84
2023/08/24 05:39:19;;;;;;;;;9.50;9.50;;;;;24.75;56.27;100514.31;6215528;22;45179;-80
2023/08/24 05:41:44;;;;;;;;;10.25;9.75;;;;;25.03;56.49;100534.53;6213568;22;45231;-86
2023/08/24 05:44:09;;;;;;;;;11.00;11.00;;;;;25.08;55.86;100514.94;6213634;22;45612;-81
2023/08/24 05:46:35;;;;;;;;;10.25;9.00;;;;;25.23;55.66;100524.84;6214418;22;58205;-81
2023/08/24 05:49:00;;;;;;;;;10.25;10.25;;;;;25.31;54.77;100517.66;6214174;22;45170;-80
2023/08/24 05:51:25;;;;;;;;;8.75;8.75;;;;;25.42;54.76;100517.22;6215601;22;45205;-83
2023/08/24 05:53:55;;;;;;;;;8.00;8.00;;;;;25.53;54.27;100514.91;6215369;22;45199;-82
2023/08/24 05:56:24;;;;;;;;;13.00;10.00;;;;;25.63;53.90;100492.81;6215118;22;45323;-82
2023/08/24 05:58:49;;;;;;;;;17.50;13.00;;;;;25.69;53.98;100481.22;6220445;22;45295;-81
2023/08/24 06:01:15;;;;;;;;;9.25;8.25;;;;;25.69;53.77;100475.78;6216919;22;45295;-81
2023/08/24 06:03:40;;;;;;;;;12.25;12.25;;;;;25.66;53.70;100476.13;6212699;22;45957;-82
2023/08/24 06:06:05;;;;;;;;;12.50;9.50;;;;;25.71;53.70;100492.78;6214157;22;45182;-82
2023/08/24 06:08:31;;;;;;;;;10.25;10.25;;;;;25.65;53.06;100498.94;6212931;22;45495;-81
2023/08/24 06:10:58;;;;;;;;;10.25;8.00;;;;;25.53;53.76;100498.56;6212880;22;45304;-83
2023/08/24 06:13:23;;;;;;;;;11.00;11.00;;;;;25.59;53.06;100514.16;6213268;22;45339;-81
2023/08/24 06:15:48;;;;;;;;;9.50;9.50;;;;;25.55;53.49;100506.53;6186155;22;45302;-81
2023/08/24 06:18:14;;;;;;;;;8.50;8.50;;;;;25.57;53.26;100515.38;6213074;22;45326;-81
2023/08/24 06:20:39;;;;;;;;;10.00;10.00;;;;;25.39;53.74;100488.50;6212612;22;46134;-80
2023/08/24 06:23:05;;;;;;;;;12.75;11.50;;;;;25.42;53.65;100514.50;6212436;22;45322;-80
2023/08/24 06:25:31;;;;;;;;;10.00;10.00;;;;;25.42;53.67;100533.56;6216484;22;45209;-82
2023/08/24 06:27:58;;;;;;;;;14.25;10.00;;;;;25.47;53.49;100531.97;6211790;22;45342;-81
2023/08/24 06:30:24;;;;;;;;;10.00;9.75;;;;;25.37;53.36;100515.03;6213275;22;45924;-84
2023/08/24 06:32:49;;;;;;;;;11.25;9.25;;;;;25.47;53.56;100520.22;6186344;22;45352;-84
2023/08/24 06:35:15;;;;;;;;;12.25;8.00;;;;;25.58;53.58;100531.53;6212808;22;49458;-83
2023/08/24 06:37:40;;;;;;;;;11.00;10.75;;;;;25.64;53.16;100516.31;6213405;22;45431;-80
2023/08/24 06:40:06;;;;;;;;;12.00;9.75;;;;;25.59;53.07;100502.41;6211941;22;68618;-82
2023/08/24 06:42:31;;;;;;;;;10.50;10.50;;;;;25.65;52.70;100517.16;6212759;22;45380;-81
2023/08/24 06:44:57;;;;;;;;;8.75;8.75;;;;;25.60;52.99;100501.38;6213260;22;54180;-83
2023/08/24 06:47:22;;;;;;;;;11.50;9.75;;;;;25.69;52.89;100510.34;6213628;22;45312;-81
2023/08/24 06:49:47;;;;;;;;;11.00;11.00;;;;;25.77;52.65;100508.38;6185535;22;46507;-81
2023/08/24 06:52:13;;;;;;;;;12.00;10.50;;;;;25.90;52.66;100506.88;6206460;22;45360;-79
2023/08/24 06:54:38;;;;;;;;;10.00;9.50;;;;;25.97;52.35;100494.19;6206300;22;49608;-82
2023/08/24 06:57:04;;;;;;;;;10.00;10.00;;;;;26.19;52.43;100514.22;6208796;22;45748;-81
2023/08/24 06:59:29;;;;;;;;;14.00;11.50;;;;;26.28;51.85;100497.53;6208051;22;45415;-82
2023/08/24 07:01:55;;;;;;;;;10.50;10.00;;;;;26.35;51.11;100486.75;6210441;22;56119;-82
2023/08/24 07:04:20;;;;;;;;;11.50;11.50;;;;;26.47;51.14;100489.84;6211202;22;51572;-80
2023/08/24 07:06:46;;;;;;;;;9.00;7.50;;;;;26.43;50.09;100492.97;6211172;22;45494;-79
2023/08/24 07:09:11;;;;;;;;;10.75;10.75;;;;;26.54;50.32;100518.03;6211000;22;45762;-80
2023/08/24 07:11:37;;;;;;;;;8.25;8.25;;;;;26.48;50.38;100507.91;6211152;22;45335;-83
2023/08/24 07:14:02;;;;;;;;;13.50;11.00;;;;;26.56;50.31;100516.78;6212186;22;45468;-81
2023/08/24 07:16:27;;;;;;;;;11.75;10.50;;;;;26.62;50.06;100509.75;6211925;22;45561;-80
2023/08/24 07:18:53;;;;;;;;;10.00;10.00;;;;;26.69;49.78;100494.28;6210233;22;45361;-81
2023/08/24 07:21:18;;;;;;;;;10.50;10.25;;;;;26.89;49.10;100499.97;6211036;22;45319;-82
2023/08/24 07:23:44;;;;;;;;;9.25;9.00;;;;;27.05;49.07;100488.81;6211560;22;45269;-81
2023/08/24 07:26:10;;;;;;;;;9.50;9.50;;;;;27.21;49.02;100487.69;6212004;22;45318;-83
2023/08/24 07:28:35;;;;;;;;;13.75;11.00;;;;;27.37;48.42;100495.63;6212227;22;46188;-82
2023/08/24 07:31:08;;;;;;;;;9.75;8.25;;;;;27.38;48.25;100483.66;6211227;22;45363;-82
2023/08/24 07:33:33;;;;;;;;;12.50;11.25;;;;;27.18;48.33;100477.16;6211912;22;45296;-84
2023/08/24 07:35:58;;;;;;;;;9.75;8.75;;;;;26.99;48.66;100474.03;6210787;22;45409;-84
2023/08/24 07:38:24;;;;;;;;;10.75;9.00;;;;;26.90;48.84;100480.66;6211033;22;64766;-80
2023/08/24 07:40:49;;;;;;;;;10.00;9.75;;;;;26.73;49.29;100480.09;6182874;22;60538;-81
2023/08/24 07:43:14;;;;;;;;;10.75;10.75;;;;;26.55;49.71;100470.63;6212706;22;45253;-80
2023/08/24 07:45:40;;;;;;;;;11.75;10.25;;;;;26.52;50.03;100476.47;6213081;22;45485;-80
2023/08/24 07:48:06;;;;;;;;;14.00;11.75;;;;;26.48;49.77;100465.13;6213340;22;45402;-80
2023/08/24 07:50:32;;;;;;;;;13.00;12.00;;;;;26.67;50.00;100469.09;6213379;22;45270;-81
2023/08/24 07:52:57;;;;;;;;;7.75;7.00;;;;;26.67;49.58;100463.63;6214052;22;45470;-80
2023/08/24 07:55:22;;;;;;;;;9.00;9.00;;;;;26.73;49.86;100461.00;6212400;22;45395;-81
2023/08/24 07:57:48;;;;;;;;;9.00;7.75;;;;;26.90;49.68;100444.34;6211720;22;46220;-81
2023/08/24 08:00:14;;;;;;;;;12.00;11.20;;;;;26.94;49.17;100434.72;6211020;22;45404;-81
2023/08/24 08:02:40;;;;;;;;;10.50;10.50;;;;;27.07;49.00;100447.66;6205336;22;45483;-79
2023/08/24 08:05:10;;;;;;;;;10.75;9.00;;;;;27.26;49.00;100452.47;6210427;22;45336;-79
2023/08/24 08:07:36;;;;;;;;;10.50;10.50;;;;;27.35;48.51;100451.28;6209786;22;45391;-79
2023/08/24 08:10:01;;;;;;;;;9.00;9.00;;;;;27.34;48.60;100438.66;6183054;22;45350;-79
2023/08/24 08:12:26;;;;;;;;;10.00;10.00;;;;;27.63;47.55;100471.25;6210592;22;45360;-77
2023/08/24 08:14:52;;;;;;;;;17.50;12.75;;;;;27.76;47.46;100481.44;6213531;22;45221;-81
2023/08/24 08:17:17;;;;;;;;;11.75;11.75;;;;;28.04;47.44;100508.72;6210218;22;51077;-80
2023/08/24 08:19:42;;;;;;;;;13.00;13.00;;;;;28.13;47.16;100502.06;6210327;22;48041;-79
2023/08/24 08:22:08;;;;;;;;;14.00;12.75;;;;;28.26;46.33;100492.19;6209870;22;45403;-80
2023/08/24 08:24:33;;;;;;;;;12.25;11.75;;;;;28.21;46.94;100474.53;6210055;22;45378;-80
2023/08/24 08:26:58;;;;;;;;;7.75;7.75;;;;;28.31;46.02;100473.34;6209810;22;45450;-79
2023/08/24 08:29:24;;;;;;;;;15.00;12.00;;;;;28.50;45.44;100469.81;6209732;22;57734;-81
2023/08/24 08:31:49;;;;;;;;;18.25;10.75;;;;;28.74;45.39;100474.72;6211008;22;45385;-80
2023/08/24 08:34:15;;;;;;;;;8.75;8.75;;;;;28.89;45.78;100482.78;6210819;22;45507;-81
2023/08/24 08:36:40;;;;;;;;;11.25;11.25;;;;;28.89;45.74;100484.69;6208658;22;45352;-82
2023/08/24 08:39:06;;;;;;;;;15.00;12.50;;;;;28.77;46.01;100485.25;6179568;22;45657;-79
2023/08/24 08:41:38;;;;;;;;;18.00;12.75;;;;;28.75;46.44;100492.81;6211439;22;45826;-81
2023/08/24 08:44:05;;;;;;;;;16.00;14.50;;;;;28.73;46.79;100505.88;6211512;22;45411;-78
2023/08/24 08:46:32;;;;;;;;;13.75;12.00;;;;;28.79;46.57;100505.06;6210417;22;45954;-79
2023/08/24 08:49:00;;;;;;;;;16.80;12.80;;;;;28.87;46.50;100506.78;6211219;22;45403;-80
2023/08/24 08:51:26;;;;;;;;;10.80;10.80;;;;;28.75;46.13;100487.34;6211058;22;45357;-80
2023/08/24 08:53:52;;;;;;;;;11.00;11.00;;;;;28.89;46.01;100499.22;6211984;22;45442;-78
2023/08/24 08:56:17;;;;;;;;;9.75;9.75;;;;;29.05;46.74;100512.53;6210580;22;46534;-80
2023/08/24 08:58:44;;;;;;;;;12.75;12.25;;;;;29.16;46.64;100519.25;6184124;22;45383;-79
2023/08/24 09:01:09;;;;;;;;;12.20;11.60;;;;;29.21;46.16;100518.66;6209568;22;45420;-79
2023/08/24 09:03:35;;;;;;;;;12.25;10.75;;;;;29.21;46.87;100507.69;6211490;22;45630;-77
2023/08/24 09:06:01;;;;;;;;;11.50;11.50;;;;;29.15;46.13;100514.81;6212429;22;46126;-78
2023/08/24 09:08:27;;;;;;;;;12.60;12.20;;;;;28.95;46.91;100495.66;6211212;22;45434;-78
2023/08/24 09:10:54;;;;;;;;;16.40;13.40;;;;;28.96;47.14;100488.28;6211981;22;45613;-79
2023/08/24 09:13:21;;;;;;;;;12.40;12.00;;;;;28.94;47.04;100457.53;6214282;22;45565;-75
2023/08/24 09:15:46;;;;;;;;;12.00;12.00;;;;;29.15;46.61;100446.38;6187064;22;46152;-82
2023/08/24 09:18:11;;;;;;;;;11.75;10.25;;;;;29.22;46.52;100433.53;6187328;22;45511;-83
2023/08/24 09:20:37;;;;;;;;;11.50;11.50;;;;;29.43;46.41;100450.78;6212436;22;45702;-79
2023/08/24 09:23:02;;;;;;;;;11.75;11.75;;;;;29.39;45.58;100453.09;6212119;22;45382;-79
2023/08/24 09:25:28;;;;;;;;;12.25;12.25;;;;;29.25;46.10;100459.66;6212746;22;46383;-81
2023/08/24 09:28:06;;;;;;;;;13.00;11.50;;;;;29.15;46.00;100481.97;6211717;22;45447;-78
2023/08/24 09:30:35;;;;;;;;;13.00;12.00;;;;;29.06;45.93;100485.97;6211956;22;45390;-82
2023/08/24 09:33:08;;;;;;;;;14.60;12.00;;;;;28.82;47.22;100483.81;6211967;22;45293;-78
2023/08/24 09:35:37;;;;;;;;;10.00;10.00;;;;;28.78;47.36;100491.59;6211587;22;45377;-82
2023/08/24 09:38:19;;;;;;;;;8.80;8.80;;;;;28.83;46.58;100518.34;6211778;22;45359;-81
2023/08/24 09:40:51;;;;;;;;;11.00;10.20;;;;;28.78;46.59;100533.50;6211825;22;45313;-79
2023/08/24 09:43:16;;;;;;;;;12.60;11.00;;;;;28.78;46.07;100505.28;6212683;22;45635;-80
2023/08/24 09:46:08;;;;;;;;;14.00;14.00;;;;;28.92;46.66;100525.34;6211214;22;45482;-81
2023/08/24 09:48:33;;;;;;;;;11.80;11.80;;;;;28.99;45.90;100520.72;6204567;22;45331;-79
2023/08/24 09:51:03;;;;;;;;;11.75;10.25;;;;;28.86;45.92;100498.75;6211221;22;45402;-81
2023/08/24 09:53:32;;;;;;;;;5.50;5.50;;;;;28.86;45.91;100531.59;6211354;22;45562;-81
2023/08/24 09:56:02;;;;;;;;;9.00;8.80;;;;;28.72;45.90;100537.03;6210621;22;46309;-78
2023/08/24 09:58:28;;;;;;;;;10.00;10.00;;;;;28.64;46.09;100541.84;6210203;22;45247;-80
2023/08/24 10:00:55;;;;;;;;;11.80;11.00;;;;;28.61;46.32;100545.84;6211900;22;45654;-80
2023/08/24 10:03:26;;;;;;;;;12.00;10.50;;;;;28.49;46.67;100542.00;6211254;22;45320;-80
2023/08/24 10:05:53;;;;;;;;;8.20;8.20;;;;;28.42;47.14;100552.91;6211212;22;45335;-80
2023/08/24 10:08:27;;;;;;;;;12.20;11.80;;;;;28.32;47.06;100562.53;6210163;22;45442;-78
2023/08/24 10:10:55;;;;;;;;;8.00;8.00;;;;;28.21;46.96;100548.34;6211290;22;45462;-79
2023/08/24 10:13:42;;;;;;;;;14.00;12.00;;;;;28.31;47.39;100542.56;6184169;22;45269;-80
2023/08/24 10:16:09;;;;;;;;;11.25;11.25;;;;;28.36;47.15;100529.09;6211308;22;46200;-82
2023/08/24 10:18:36;;;;;;;;;11.20;10.20;;;;;28.37;47.22;100521.75;6209889;22;45436;-80
2023/08/24 10:21:02;;;;;;;;;13.00;13.00;;;;;28.43;47.00;100512.72;6183489;22;45404;-80
2023/08/24 10:23:30;;;;;;;;;12.00;12.00;;;;;28.40;46.66;100483.06;6210840;22;45344;-81
2023/08/24 10:25:56;;;;;;;;;10.80;10.00;;;;;28.58;46.62;100486.06;6210848;22;46221;-81
2023/08/24 10:28:25;;;;;;;;;13.00;11.00;;;;;28.69;46.95;100507.34;6211344;22;45269;-81
2023/08/24 10:30:51;;;;;;;;;10.60;10.60;;;;;28.71;46.80;100502.50;6210578;22;45430;-82
2023/08/24 10:33:18;;;;;;;;;11.60;11.60;;;;;28.67;46.20;100494.94;6210677;22;45470;-80
2023/08/24 10:35:46;;;;;;;;;12.40;10.80;;;;;28.78;46.21;100522.53;6182964;22;46876;-78
2023/08/24 10:38:28;;;;;;;;;8.00;8.00;;;;;28.77;46.09;100534.50;6210400;22;45368;-82
2023/08/24 10:40:54;;;;;;;;;15.20;12.20;;;;;28.69;46.96;100542.94;6210942;22;45320;-78
2023/08/24 10:43:22;;;;;;;;;12.80;11.80;;;;;28.50;47.17;100547.25;6207841;22;45663;-81
2023/08/24 10:46:02;;;;;;;;;8.80;8.80;;;;;28.49;46.81;100575.66;6208041;22;46131;-80
2023/08/24 10:48:29;;;;;;;;;11.60;11.60;;;;;28.40;47.14;100589.75;6210681;22;45451;-79
2023/08/24 10:51:13;;;;;;;;;16.00;14.75;;;;;28.35;47.66;100600.41;6209980;22;45268;-80
2023/08/24 10:53:40;;;;;;;;;11.25;10.75;;;;;28.28;47.68;100602.28;6210522;22;45246;-81
2023/08/24 10:56:16;;;;;;;;;11.50;11.50;;;;;28.26;47.64;100609.78;6210305;22;45334;-80
2023/08/24 10:58:43;;;;;;;;;14.25;14.25;;;;;28.21;48.14;100611.25;6182285;22;45572;-81
2023/08/24 11:01:16;;;;;;;;;12.40;12.40;;;;;28.17;47.86;100620.06;6209327;22;45403;-80
2023/08/24 11:03:46;;;;;;;;;12.75;11.50;;;;;28.00;48.37;100586.72;6210681;22;45660;-80
2023/08/24 11:06:22;;;;;;;;;10.50;8.25;;;;;28.00;48.59;100605.88;6182704;22;47295;-80
2023/08/24 11:08:48;;;;;;;;;11.00;9.20;;;;;27.79;48.06;100578.56;6209096;22;45346;-80
2023/08/24 11:11:21;;;;;;;;;9.60;7.80;;;;;27.91;48.65;100594.22;6209534;22;45262;-81
2023/08/24 11:14:22;;;;;;;;;13.50;12.25;;;;;27.97;48.42;100587.09;6210569;22;45469;-80
2023/08/24 11:16:48;;;;;;;;;7.60;7.60;;;;;27.81;49.20;100577.31;6209975;22;45777;-80